Chanar, Argentina
Current Conditions -  °F | °C
As of 7:00 AM on Tuesday 27 Jan 2015 (Local Time) from SACO Reporting Station
Thunderstorm Thunderstorm  
Wind Chill: 68°   Ceiling: 3000
Heat Index: 68°   Visibility: 4mi
Dew Point: 64°   Wind: 9mph
Humidity: 88%   Direction: 290°WNW
Pressure: 29.88"   Gusts: NA
Location:  30.53°S, 65.97°W
Report Text: SACO 271000Z 29008KT 7000 -TSRA SCT020BKN030 FEW040CB 20/18 Q1012
Loading
Personal Weather Stations






























Interactive Weather Map New forecast layout! Learn more

10-Day Weather Forecast

Advertisements
Track Severe Weather on mobile